createdAt,value
2023-03-18T00:00:34.217Z,0.00
2023-03-18T00:01:34.210Z,0.00
2023-03-18T00:02:34.220Z,0.00
2023-03-18T00:03:34.184Z,0.00
2023-03-18T00:04:34.392Z,0.00
2023-03-18T00:05:34.180Z,0.00
2023-03-18T00:06:34.164Z,0.00
2023-03-18T00:07:34.142Z,0.00
2023-03-18T00:08:34.143Z,0.00
2023-03-18T00:09:34.125Z,0.00
2023-03-18T00:10:34.289Z,0.00
2023-03-18T00:11:34.106Z,0.00
2023-03-18T00:12:34.097Z,0.00
2023-03-18T00:13:34.095Z,0.00
2023-03-18T00:14:34.096Z,0.00
2023-03-18T00:15:34.077Z,0.00
2023-03-18T00:16:34.066Z,0.00
2023-03-18T00:17:34.059Z,0.00
2023-03-18T00:18:34.046Z,0.00
2023-03-18T00:19:34.033Z,0.00
2023-03-18T00:20:34.138Z,0.00
2023-03-18T00:21:34.055Z,0.00
2023-03-18T00:22:34.006Z,0.00
2023-03-18T00:23:34.000Z,0.00
2023-03-18T00:24:34.059Z,0.00
2023-03-18T00:25:33.978Z,0.00
2023-03-18T00:26:33.965Z,0.00
2023-03-18T00:27:33.949Z,0.00
2023-03-18T00:28:33.944Z,0.00
2023-03-18T00:29:33.927Z,0.00
2023-03-18T00:30:34.249Z,0.00
2023-03-18T00:31:33.960Z,0.00
2023-03-18T00:32:33.947Z,0.00
2023-03-18T00:33:33.883Z,0.00
2023-03-18T00:34:33.880Z,0.00
2023-03-18T00:35:33.929Z,0.00
2023-03-18T00:36:33.879Z,0.00
2023-03-18T00:37:33.854Z,0.00
2023-03-18T00:38:33.843Z,0.00
2023-03-18T00:39:33.832Z,0.00
2023-03-18T00:40:33.981Z,0.00
2023-03-18T00:41:33.845Z,0.00
2023-03-18T00:42:33.811Z,0.00
2023-03-18T00:43:33.928Z,0.00
2023-03-18T00:44:33.800Z,0.00
2023-03-18T00:45:33.775Z,0.00
2023-03-18T00:46:33.784Z,0.00
2023-03-18T00:47:33.758Z,0.00
2023-03-18T00:48:33.759Z,0.00
2023-03-18T00:49:33.734Z,0.00
2023-03-18T00:50:33.864Z,0.00
2023-03-18T00:51:33.710Z,0.00
2023-03-18T00:52:33.708Z,0.00
2023-03-18T00:53:33.689Z,0.00
2023-03-18T00:54:33.692Z,0.00
2023-03-18T00:55:33.677Z,0.00
2023-03-18T00:56:33.665Z,0.00
2023-03-18T00:57:33.654Z,0.00
2023-03-18T00:58:33.646Z,0.00
2023-03-18T00:59:33.645Z,0.00
2023-03-18T01:00:34.009Z,0.00
2023-03-18T01:01:33.610Z,0.00
2023-03-18T01:02:33.626Z,0.00
2023-03-18T01:03:33.605Z,0.00
2023-03-18T01:04:33.593Z,0.00
2023-03-18T01:05:33.582Z,0.00
2023-03-18T01:06:33.565Z,0.00
2023-03-18T01:07:33.571Z,0.00
2023-03-18T01:08:33.562Z,0.00
2023-03-18T01:09:33.542Z,0.00
2023-03-18T01:10:33.727Z,0.00
2023-03-18T01:11:33.531Z,0.00
2023-03-18T01:12:33.520Z,0.00
2023-03-18T01:13:33.517Z,0.00
2023-03-18T01:14:33.485Z,0.00
2023-03-18T01:15:33.531Z,0.00
2023-03-18T01:16:33.583Z,0.00
2023-03-18T01:17:33.490Z,0.00
2023-03-18T01:18:33.461Z,0.00
2023-03-18T01:19:33.452Z,0.00
2023-03-18T01:20:33.796Z,0.00
2023-03-18T01:21:33.431Z,0.00
2023-03-18T01:22:33.414Z,0.00
2023-03-18T01:23:33.411Z,0.00
2023-03-18T01:24:33.391Z,0.00
2023-03-18T01:25:33.396Z,0.00
2023-03-18T01:26:33.375Z,0.00
2023-03-18T01:27:33.379Z,0.00
2023-03-18T01:28:33.364Z,0.00
2023-03-18T01:29:33.366Z,0.00
2023-03-18T01:30:33.661Z,0.00
2023-03-18T01:31:33.383Z,0.00
2023-03-18T01:32:33.362Z,0.00
2023-03-18T01:33:33.330Z,0.00
2023-03-18T01:34:33.303Z,0.00
2023-03-18T01:35:33.364Z,0.00
2023-03-18T01:36:33.305Z,0.00
2023-03-18T01:37:33.287Z,0.00
2023-03-18T01:38:33.261Z,0.00
2023-03-18T01:39:33.253Z,0.00
2023-03-18T01:40:33.388Z,0.00
2023-03-18T01:41:33.351Z,0.00
2023-03-18T01:42:33.221Z,0.00
2023-03-18T01:43:33.217Z,0.00
2023-03-18T01:44:33.205Z,0.00
2023-03-18T01:45:33.236Z,0.00
2023-03-18T01:46:33.188Z,0.00
2023-03-18T01:47:33.182Z,0.00
2023-03-18T01:48:33.166Z,0.00
2023-03-18T01:49:33.160Z,0.00
2023-03-18T01:50:33.786Z,0.00
2023-03-18T01:51:33.135Z,0.00
2023-03-18T01:52:33.129Z,0.00
2023-03-18T01:53:33.113Z,0.00
2023-03-18T01:54:33.105Z,0.00
2023-03-18T01:55:33.098Z,0.00
2023-03-18T01:56:33.079Z,0.00
2023-03-18T01:57:33.073Z,0.00
2023-03-18T01:58:33.057Z,0.00
2023-03-18T01:59:33.057Z,0.00
2023-03-18T02:00:33.374Z,0.00
2023-03-18T02:01:33.026Z,0.00
2023-03-18T02:02:33.026Z,0.00
2023-03-18T02:03:33.018Z,0.00
2023-03-18T02:04:33.001Z,0.00
2023-03-18T02:05:33.109Z,0.00
2023-03-18T02:06:32.983Z,0.00
2023-03-18T02:07:32.995Z,0.00
2023-03-18T02:08:32.963Z,0.00
2023-03-18T02:09:32.961Z,0.00
2023-03-18T02:10:33.252Z,0.00
2023-03-18T02:11:32.952Z,0.00
2023-03-18T02:12:32.928Z,0.00
2023-03-18T02:13:32.918Z,0.00
2023-03-18T02:14:32.907Z,0.00
2023-03-18T02:15:32.906Z,0.00
2023-03-18T02:16:32.909Z,0.00
2023-03-18T02:17:32.886Z,0.00
2023-03-18T02:18:32.869Z,0.00
2023-03-18T02:19:32.868Z,0.00
2023-03-18T02:20:33.211Z,0.00
2023-03-18T02:21:32.868Z,0.00
2023-03-18T02:22:32.827Z,0.00
2023-03-18T02:23:32.836Z,0.00
2023-03-18T02:24:32.804Z,0.00
2023-03-18T02:25:32.820Z,0.00
2023-03-18T02:26:32.806Z,0.00
2023-03-18T02:27:32.784Z,0.00
2023-03-18T02:28:32.777Z,0.00
2023-03-18T02:29:32.774Z,0.00
2023-03-18T02:30:33.126Z,0.00
2023-03-18T02:31:32.747Z,0.00
2023-03-18T02:32:32.769Z,0.00
2023-03-18T02:33:32.742Z,0.00
2023-03-18T02:34:32.712Z,0.00
2023-03-18T02:35:33.173Z,0.00
2023-03-18T02:36:32.693Z,0.00
2023-03-18T02:37:32.696Z,0.00
2023-03-18T02:38:32.681Z,0.00
2023-03-18T02:39:32.670Z,0.00
2023-03-18T02:40:33.067Z,0.00
2023-03-18T02:41:32.657Z,0.00
2023-03-18T02:42:32.637Z,0.00
2023-03-18T02:43:32.645Z,0.00
2023-03-18T02:44:32.612Z,0.00
2023-03-18T02:45:32.647Z,0.00
2023-03-18T02:46:32.612Z,0.00
2023-03-18T02:47:32.593Z,0.00
2023-03-18T02:48:32.580Z,0.00
2023-03-18T02:49:32.582Z,0.00
2023-03-18T02:50:32.878Z,0.00
2023-03-18T02:51:32.567Z,0.00
2023-03-18T02:52:32.539Z,0.00
2023-03-18T02:53:32.540Z,0.00
2023-03-18T02:54:32.520Z,0.00
2023-03-18T02:55:32.523Z,0.00
2023-03-18T02:56:32.505Z,0.00
2023-03-18T02:57:32.492Z,0.00
2023-03-18T02:58:32.488Z,0.00
2023-03-18T02:59:32.561Z,0.00
2023-03-18T03:00:32.959Z,0.00
2023-03-18T03:01:32.575Z,0.00
2023-03-18T03:02:32.535Z,0.00
2023-03-18T03:03:32.452Z,0.00
2023-03-18T03:04:32.420Z,0.00
2023-03-18T03:05:32.694Z,0.00
2023-03-18T03:06:32.413Z,0.00
2023-03-18T03:07:32.389Z,0.00
2023-03-18T03:08:32.388Z,0.00
2023-03-18T03:09:32.373Z,0.00
2023-03-18T03:10:32.838Z,0.00
2023-03-18T03:11:32.368Z,0.00
2023-03-18T03:12:32.335Z,0.00
2023-03-18T03:13:32.335Z,0.00
2023-03-18T03:14:32.337Z,0.00
2023-03-18T03:15:32.352Z,0.00
2023-03-18T03:16:32.308Z,0.00
2023-03-18T03:17:32.287Z,0.00
2023-03-18T03:18:32.278Z,0.00
2023-03-18T03:19:32.271Z,0.00
2023-03-18T03:20:32.513Z,0.00
2023-03-18T03:21:32.265Z,0.00
2023-03-18T03:22:32.248Z,0.00
2023-03-18T03:23:32.236Z,0.00
2023-03-18T03:24:32.256Z,0.00
2023-03-18T03:25:32.208Z,0.00
2023-03-18T03:26:32.209Z,0.00
2023-03-18T03:27:32.193Z,0.00
2023-03-18T03:28:32.190Z,0.00
2023-03-18T03:29:32.164Z,0.00
2023-03-18T03:30:32.427Z,0.00
2023-03-18T03:31:32.229Z,0.00
2023-03-18T03:32:32.190Z,0.00
2023-03-18T03:33:32.123Z,0.00
2023-03-18T03:34:32.139Z,0.00
2023-03-18T03:35:32.164Z,0.00
2023-03-18T03:36:32.122Z,0.00
2023-03-18T03:37:32.086Z,0.00
2023-03-18T03:38:32.076Z,0.00
2023-03-18T03:39:32.068Z,0.00
2023-03-18T03:40:32.324Z,0.00
2023-03-18T03:41:32.048Z,0.00
2023-03-18T03:42:32.039Z,0.00
2023-03-18T03:43:32.021Z,0.00
2023-03-18T03:44:32.024Z,0.00
2023-03-18T03:45:32.013Z,0.00
2023-03-18T03:46:32.102Z,0.00
2023-03-18T03:47:31.984Z,0.00
2023-03-18T03:48:31.979Z,0.00
2023-03-18T03:49:31.976Z,0.00
2023-03-18T03:50:32.255Z,0.00
2023-03-18T03:51:31.953Z,0.00
2023-03-18T03:52:31.945Z,0.00
2023-03-18T03:53:31.925Z,0.00
2023-03-18T03:54:31.927Z,0.00
2023-03-18T03:55:31.913Z,0.00
2023-03-18T03:56:31.900Z,0.00
2023-03-18T03:57:31.888Z,0.00
2023-03-18T03:58:31.894Z,0.00
2023-03-18T03:59:31.862Z,0.00
2023-03-18T04:00:32.129Z,0.00
2023-03-18T04:01:31.853Z,0.00
2023-03-18T04:02:31.861Z,0.00
2023-03-18T04:03:31.820Z,0.00
2023-03-18T04:04:31.964Z,0.00
2023-03-18T04:05:31.805Z,0.00
2023-03-18T04:06:31.817Z,0.00
2023-03-18T04:07:31.790Z,0.00
2023-03-18T04:08:32.037Z,0.00
2023-03-18T04:09:31.755Z,0.00
2023-03-18T04:10:32.032Z,0.00
2023-03-18T04:11:31.773Z,0.00
2023-03-18T04:12:31.733Z,0.00
2023-03-18T04:13:31.725Z,0.00
2023-03-18T04:14:31.719Z,0.00
2023-03-18T04:15:31.701Z,0.00
2023-03-18T04:16:31.739Z,0.00
2023-03-18T04:17:31.699Z,0.00
2023-03-18T04:18:31.668Z,0.00
2023-03-18T04:19:31.656Z,0.00
2023-03-18T04:20:31.815Z,0.00
2023-03-18T04:21:31.642Z,0.00
2023-03-18T04:22:31.639Z,0.00
2023-03-18T04:23:31.618Z,0.00
2023-03-18T04:24:31.658Z,0.00
2023-03-18T04:25:31.609Z,0.00
2023-03-18T04:26:31.600Z,0.00
2023-03-18T04:27:31.576Z,0.00
2023-03-18T04:28:31.565Z,0.00
2023-03-18T04:29:31.565Z,0.00
2023-03-18T04:30:31.846Z,0.00
2023-03-18T04:31:31.584Z,0.00
2023-03-18T04:32:31.810Z,0.00
2023-03-18T04:33:31.511Z,0.00
2023-03-18T04:34:31.576Z,0.00
2023-03-18T04:35:31.520Z,0.00
2023-03-18T04:36:31.498Z,0.00
2023-03-18T04:37:31.484Z,0.00
2023-03-18T04:38:31.472Z,0.00
2023-03-18T04:39:31.450Z,0.00
2023-03-18T04:40:31.779Z,0.00
2023-03-18T04:41:31.439Z,0.00
2023-03-18T04:42:31.436Z,0.00
2023-03-18T04:43:31.413Z,0.00
2023-03-18T04:44:31.405Z,0.00
2023-03-18T04:45:31.403Z,0.00
2023-03-18T04:46:31.434Z,0.00
2023-03-18T04:47:31.370Z,0.00
2023-03-18T04:48:31.368Z,0.00
2023-03-18T04:49:31.349Z,0.00
2023-03-18T04:50:31.664Z,0.00
2023-03-18T04:51:31.338Z,0.00
2023-03-18T04:52:31.337Z,0.00
2023-03-18T04:53:31.328Z,0.00
2023-03-18T04:54:31.299Z,0.00
2023-03-18T04:55:31.695Z,0.00
2023-03-18T04:56:31.288Z,0.00
2023-03-18T04:57:31.269Z,0.00
2023-03-18T04:58:31.328Z,0.00
2023-03-18T04:59:31.243Z,0.00
2023-03-18T05:00:31.241Z,0.00
2023-03-18T05:01:31.228Z,0.00
2023-03-18T05:02:31.218Z,0.00
2023-03-18T05:03:31.236Z,0.00
2023-03-18T05:04:31.146Z,1.00
2023-03-18T05:05:31.424Z,1.00
2023-03-18T05:06:31.148Z,1.00
2023-03-18T05:07:31.110Z,1.00
2023-03-18T05:08:31.102Z,2.00
2023-03-18T05:09:31.105Z,2.00
2023-03-18T05:10:31.099Z,1.00
2023-03-18T05:11:31.073Z,1.00
2023-03-18T05:12:31.064Z,2.00
2023-03-18T05:13:31.057Z,4.00
2023-03-18T05:14:31.059Z,9.00
2023-03-18T05:15:31.398Z,8.00
2023-03-18T05:16:31.067Z,8.00
2023-03-18T05:17:31.006Z,5.00
2023-03-18T05:18:31.011Z,12.00
2023-03-18T05:19:30.989Z,13.00
2023-03-18T05:20:30.982Z,18.00
2023-03-18T05:21:30.975Z,17.00
2023-03-18T05:22:30.962Z,17.00
2023-03-18T05:23:30.957Z,27.00
2023-03-18T05:24:30.937Z,31.00
2023-03-18T05:25:31.164Z,32.00
2023-03-18T05:26:30.920Z,41.00
2023-03-18T05:27:30.976Z,51.00
2023-03-18T05:28:30.897Z,50.00
2023-03-18T05:29:30.883Z,57.00
2023-03-18T05:30:30.884Z,65.00
2023-03-18T05:31:31.018Z,76.00
2023-03-18T05:32:30.898Z,86.00
2023-03-18T05:33:30.851Z,92.00
2023-03-18T05:34:30.860Z,100.00
2023-03-18T05:35:31.083Z,110.00
2023-03-18T05:36:30.819Z,118.00
2023-03-18T05:37:30.807Z,127.00
2023-03-18T05:38:30.797Z,136.00
2023-03-18T05:39:30.795Z,144.00
2023-03-18T05:40:30.778Z,163.00
2023-03-18T05:41:30.764Z,171.00
2023-03-18T05:42:30.759Z,192.00
2023-03-18T05:43:30.746Z,213.00
2023-03-18T05:44:30.751Z,260.00
2023-03-18T05:45:31.120Z,291.00
2023-03-18T05:46:30.796Z,200.00
2023-03-18T05:47:30.697Z,221.00
2023-03-18T05:48:30.695Z,273.00
2023-03-18T05:49:30.680Z,395.00
2023-03-18T05:50:30.676Z,331.00
2023-03-18T05:51:30.658Z,313.00
2023-03-18T05:52:30.650Z,368.00
2023-03-18T05:53:30.639Z,329.00
2023-03-18T05:54:30.635Z,312.00
2023-03-18T05:55:30.975Z,350.00
2023-03-18T05:56:30.635Z,356.00
2023-03-18T05:57:30.594Z,450.00
2023-03-18T05:58:30.602Z,505.00
2023-03-18T05:59:30.576Z,510.00
2023-03-18T06:00:30.582Z,564.00
2023-03-18T06:01:30.568Z,611.00
2023-03-18T06:02:30.560Z,611.00
2023-03-18T06:03:30.578Z,636.00
2023-03-18T06:04:30.535Z,671.00
2023-03-18T06:05:30.516Z,717.00
2023-03-18T06:06:30.525Z,732.00
2023-03-18T06:07:30.522Z,800.00
2023-03-18T06:08:30.508Z,836.00
2023-03-18T06:09:30.478Z,856.00
2023-03-18T06:10:30.470Z,855.00
2023-03-18T06:11:30.464Z,888.00
2023-03-18T06:12:30.460Z,881.00
2023-03-18T06:13:30.432Z,1037.00
2023-03-18T06:14:30.434Z,1048.00
2023-03-18T06:15:30.876Z,1108.00
2023-03-18T06:16:30.634Z,1167.00
2023-03-18T06:17:30.402Z,1150.00
2023-03-18T06:18:30.413Z,1099.00
2023-03-18T06:19:30.373Z,1073.00
2023-03-18T06:20:30.372Z,1179.00
2023-03-18T06:21:30.357Z,1157.00
2023-03-18T06:22:30.358Z,1274.00
2023-03-18T06:23:30.335Z,1600.00
2023-03-18T06:24:30.334Z,810.00
2023-03-18T06:25:30.501Z,1125.00
2023-03-18T06:26:30.309Z,1465.00
2023-03-18T06:27:30.295Z,1694.00
2023-03-18T06:28:30.286Z,2074.00
2023-03-18T06:29:30.278Z,2414.00
2023-03-18T06:30:30.271Z,2796.00
2023-03-18T06:31:30.319Z,3019.00
2023-03-18T06:32:30.283Z,3657.00
2023-03-18T06:33:30.229Z,4200.00
2023-03-18T06:34:30.315Z,4533.00
2023-03-18T06:35:30.605Z,4894.00
2023-03-18T06:36:30.215Z,6522.00
2023-03-18T06:37:30.214Z,4209.00
2023-03-18T06:38:30.194Z,5129.00
2023-03-18T06:39:30.196Z,5363.00
2023-03-18T06:40:30.174Z,11028.00
2023-03-18T06:41:30.243Z,7971.00
2023-03-18T06:42:30.165Z,4760.00
2023-03-18T06:43:30.146Z,4860.00
2023-03-18T06:44:30.136Z,11998.00
2023-03-18T06:45:30.456Z,9739.00
2023-03-18T06:46:30.152Z,5516.00
2023-03-18T06:47:30.113Z,10693.00
2023-03-18T06:48:30.113Z,16277.00
2023-03-18T06:49:30.095Z,10558.00
2023-03-18T06:50:30.075Z,9838.00
2023-03-18T06:51:30.074Z,8597.00
2023-03-18T06:52:30.068Z,9262.00
2023-03-18T06:53:30.043Z,13645.00
2023-03-18T06:54:30.042Z,13542.00
2023-03-18T06:55:30.442Z,5103.00
2023-03-18T06:56:30.017Z,17964.00
2023-03-18T06:57:30.005Z,21005.00
2023-03-18T06:58:29.996Z,8752.00
2023-03-18T06:59:29.992Z,10176.00
2023-03-18T07:00:29.994Z,12750.00
2023-03-18T07:01:30.083Z,13549.00
2023-03-18T07:02:29.955Z,16292.00
2023-03-18T07:03:29.989Z,18420.00
2023-03-18T07:04:29.981Z,16029.00
2023-03-18T07:05:29.926Z,11444.00
2023-03-18T07:06:29.955Z,13651.00
2023-03-18T07:07:29.923Z,25754.00
2023-03-18T07:08:29.893Z,10725.00
2023-03-18T07:09:29.873Z,15007.00
2023-03-18T07:10:29.924Z,18968.00
2023-03-18T07:11:29.870Z,13520.00
2023-03-18T07:12:29.864Z,12677.00
2023-03-18T07:13:29.839Z,20733.00
2023-03-18T07:14:29.825Z,21708.00
2023-03-18T07:15:29.809Z,17468.00
2023-03-18T07:16:29.819Z,21134.00
2023-03-18T07:17:29.828Z,21703.00
2023-03-18T07:18:29.790Z,18729.00
2023-03-18T07:19:29.771Z,13005.00
2023-03-18T07:20:29.841Z,14619.00
2023-03-18T07:21:29.734Z,14193.00
2023-03-18T07:22:29.725Z,14292.00
2023-03-18T07:23:29.707Z,18426.00
2023-03-18T07:24:29.697Z,16202.00
2023-03-18T07:25:29.982Z,19061.00
2023-03-18T07:26:29.688Z,20115.00
2023-03-18T07:27:29.668Z,15267.00
2023-03-18T07:28:29.651Z,15439.00
2023-03-18T07:29:29.639Z,21506.00
2023-03-18T07:30:29.707Z,18570.00
2023-03-18T07:31:29.710Z,14379.00
2023-03-18T07:32:30.089Z,20272.00
2023-03-18T07:33:29.581Z,23530.00
2023-03-18T07:34:29.669Z,17982.00
2023-03-18T07:35:29.570Z,16903.00
2023-03-18T07:36:29.548Z,18546.00
2023-03-18T07:37:29.926Z,18131.00
2023-03-18T07:38:29.534Z,17498.00
2023-03-18T07:39:29.514Z,19252.00
2023-03-18T07:40:29.579Z,20980.00
2023-03-18T07:41:29.501Z,17628.00
2023-03-18T07:42:29.495Z,19614.00
2023-03-18T07:43:29.485Z,22738.00
2023-03-18T07:44:29.468Z,21104.00
2023-03-18T07:45:29.464Z,13381.00
2023-03-18T07:46:29.560Z,15636.00
2023-03-18T07:47:29.456Z,12996.00
2023-03-18T07:48:29.425Z,12323.00
2023-03-18T07:49:29.410Z,14033.00
2023-03-18T07:50:29.431Z,13749.00
2023-03-18T07:51:29.405Z,16260.00
2023-03-18T07:52:29.704Z,16422.00
2023-03-18T07:53:29.373Z,12213.00
2023-03-18T07:54:29.356Z,13560.00
2023-03-18T07:55:29.357Z,14823.00
2023-03-18T07:56:29.337Z,12164.00
2023-03-18T07:57:29.635Z,17030.00
2023-03-18T07:58:29.302Z,12552.00
2023-03-18T07:59:29.307Z,15794.00
2023-03-18T08:00:29.293Z,12978.00
2023-03-18T08:01:29.274Z,8679.00
2023-03-18T08:02:29.274Z,11666.00
2023-03-18T08:03:29.326Z,11483.00
2023-03-18T08:04:29.346Z,15706.00
2023-03-18T08:05:29.240Z,14569.00
2023-03-18T08:06:29.225Z,10634.00
2023-03-18T08:07:29.233Z,12351.00
2023-03-18T08:08:29.304Z,12879.00
2023-03-18T08:09:29.194Z,11361.00
2023-03-18T08:10:29.241Z,8470.00
2023-03-18T08:11:29.172Z,12305.00
2023-03-18T08:12:38.458Z,12473.00
2023-03-18T08:13:29.160Z,11876.00
2023-03-18T08:14:29.135Z,8445.00
2023-03-18T08:15:29.196Z,15272.00
2023-03-18T08:16:29.160Z,10650.00
2023-03-18T08:17:29.571Z,16070.00
2023-03-18T08:18:29.107Z,22145.00
2023-03-18T08:19:29.080Z,11821.00
2023-03-18T08:20:29.068Z,13287.00
2023-03-18T08:21:29.063Z,13211.00
2023-03-18T08:22:29.062Z,10278.00
2023-03-18T08:23:29.034Z,10690.00
2023-03-18T08:24:29.045Z,8083.00
2023-03-18T08:25:29.024Z,5394.00
2023-03-18T08:26:28.996Z,5950.00
2023-03-18T08:27:29.009Z,5596.00
2023-03-18T08:28:28.980Z,5831.00
2023-03-18T08:29:28.977Z,5328.00
2023-03-18T08:30:29.049Z,5040.00
2023-03-18T08:31:28.989Z,5317.00
2023-03-18T08:32:28.988Z,5220.00
2023-03-18T08:33:28.933Z,5520.00
2023-03-18T08:34:28.914Z,5146.00
2023-03-18T08:35:28.906Z,4877.00
2023-03-18T08:36:28.899Z,5247.00
2023-03-18T08:37:28.945Z,5908.00
2023-03-18T08:38:28.887Z,4973.00
2023-03-18T08:39:28.866Z,5219.00
2023-03-18T08:40:28.853Z,5181.00
2023-03-18T08:41:28.858Z,6059.00
2023-03-18T08:42:28.840Z,1252.00
2023-03-18T08:43:28.820Z,5026.00
2023-03-18T08:44:28.814Z,5396.00
2023-03-18T08:45:28.792Z,5690.00
2023-03-18T08:46:28.780Z,4483.00
2023-03-18T08:47:28.808Z,5888.00
2023-03-18T08:48:28.771Z,5509.00
2023-03-18T08:49:28.774Z,5254.00
2023-03-18T08:50:28.736Z,5211.00
2023-03-18T08:51:28.732Z,4842.00
2023-03-18T08:52:28.738Z,4997.00
2023-03-18T08:53:28.710Z,4784.00
2023-03-18T08:54:28.697Z,4701.00
2023-03-18T08:55:28.685Z,4365.00
2023-03-18T08:56:28.674Z,4315.00
2023-03-18T08:57:28.931Z,4399.00
2023-03-18T08:58:28.652Z,4283.00
2023-03-18T08:59:28.647Z,4676.00
2023-03-18T09:00:28.629Z,4210.00
2023-03-18T09:01:28.635Z,4408.00
2023-03-18T09:02:28.871Z,4472.00
2023-03-18T09:03:28.646Z,4312.00
2023-03-18T09:04:28.580Z,4310.00
2023-03-18T09:05:28.571Z,5213.00
2023-03-18T09:06:28.557Z,4456.00
2023-03-18T09:07:28.572Z,4444.00
2023-03-18T09:08:28.540Z,4223.00
2023-03-18T09:09:42.815Z,5111.00
2023-03-18T09:10:28.515Z,3401.00
2023-03-18T09:11:28.503Z,4379.00
2023-03-18T09:12:28.563Z,4162.00
2023-03-18T09:13:28.484Z,5003.00
2023-03-18T09:14:28.471Z,5379.00
2023-03-18T09:15:28.471Z,4322.00
2023-03-18T09:16:28.509Z,1216.00
2023-03-18T09:17:46.966Z,5205.00
2023-03-18T09:18:28.441Z,4602.00
2023-03-18T09:19:28.450Z,4293.00
2023-03-18T09:20:28.433Z,4299.00
2023-03-18T09:21:28.394Z,4351.00
2023-03-18T09:22:28.374Z,4403.00
2023-03-18T09:23:28.423Z,4261.00
2023-03-18T09:24:28.366Z,4219.00
2023-03-18T09:25:28.350Z,4148.00
2023-03-18T09:26:28.327Z,4370.00
2023-03-18T09:27:28.322Z,4245.00
2023-03-18T09:28:28.312Z,4071.00
2023-03-18T09:29:28.298Z,3842.00
2023-03-18T09:30:28.318Z,4070.00
2023-03-18T09:31:28.296Z,4142.00
2023-03-18T09:32:28.444Z,3849.00
2023-03-18T09:33:28.281Z,3955.00
2023-03-18T09:34:28.244Z,4002.00
2023-03-18T09:35:28.233Z,3927.00
2023-03-18T09:36:28.218Z,3975.00
2023-03-18T09:37:28.442Z,4117.00
2023-03-18T09:38:28.222Z,4011.00
2023-03-18T09:39:28.420Z,3980.00
2023-03-18T09:40:28.179Z,4108.00
2023-03-18T09:41:28.168Z,3747.00
2023-03-18T09:42:28.154Z,4809.00
2023-03-18T09:43:28.161Z,4371.00
2023-03-18T09:44:28.130Z,4000.00
2023-03-18T09:45:28.125Z,4507.00
2023-03-18T09:46:28.221Z,3983.00
2023-03-18T09:47:28.106Z,3861.00
2023-03-18T09:48:28.122Z,4219.00
2023-03-18T09:49:28.075Z,4713.00
2023-03-18T09:50:28.064Z,4190.00
2023-03-18T09:51:28.059Z,4557.00
2023-03-18T09:52:28.046Z,4090.00
2023-03-18T09:53:28.439Z,4344.00
2023-03-18T09:54:28.024Z,4028.00
2023-03-18T09:55:28.013Z,3784.00
2023-03-18T09:56:28.015Z,3768.00
2023-03-18T09:57:28.873Z,3869.00
2023-03-18T09:58:28.718Z,3772.00
2023-03-18T09:59:27.967Z,3627.00
2023-03-18T10:00:27.956Z,3801.00
2023-03-18T10:01:28.034Z,3645.00
2023-03-18T10:02:27.932Z,3503.00
2023-03-18T10:03:28.041Z,3722.00
2023-03-18T10:04:27.905Z,3621.00
2023-03-18T10:05:27.907Z,3542.00
2023-03-18T10:06:27.887Z,3530.00
2023-03-18T10:07:27.888Z,3554.00
2023-03-18T10:08:28.685Z,3649.00
2023-03-18T10:09:27.857Z,3382.00
2023-03-18T10:10:27.852Z,3449.00
2023-03-18T10:11:27.836Z,3648.00
2023-03-18T10:12:27.820Z,3894.00
2023-03-18T10:13:28.196Z,4036.00
2023-03-18T10:14:27.829Z,4526.00
2023-03-18T10:15:27.791Z,3932.00
2023-03-18T10:16:27.865Z,3136.00
2023-03-18T10:17:27.769Z,1028.00
2023-03-18T10:18:27.773Z,4453.00
2023-03-18T10:19:27.744Z,3104.00
2023-03-18T10:20:27.743Z,3927.00
2023-03-18T10:21:27.732Z,3823.00
2023-03-18T10:22:27.736Z,3101.00
2023-03-18T10:23:27.728Z,3642.00
2023-03-18T10:24:27.711Z,5536.00
2023-03-18T10:25:27.690Z,3212.00
2023-03-18T10:26:27.695Z,1259.00
2023-03-18T10:27:27.668Z,4776.00
2023-03-18T10:28:27.970Z,3044.00
2023-03-18T10:29:27.645Z,3903.00
2023-03-18T10:30:27.691Z,3819.00
2023-03-18T10:31:27.675Z,3528.00
2023-03-18T10:32:35.885Z,3391.00
2023-03-18T10:33:27.819Z,4085.00
2023-03-18T10:34:27.583Z,3004.00
2023-03-18T10:35:27.609Z,3510.00
2023-03-18T10:36:27.568Z,3872.00
2023-03-18T10:37:27.571Z,3972.00
2023-03-18T10:38:27.566Z,4140.00
2023-03-18T10:39:27.544Z,4877.00
2023-03-18T10:40:27.520Z,1136.00
2023-03-18T10:41:28.850Z,3095.00
2023-03-18T10:42:27.519Z,3903.00
2023-03-18T10:43:27.526Z,5404.00
2023-03-18T10:44:27.482Z,1926.00
2023-03-18T10:45:27.527Z,2889.00
2023-03-18T10:46:27.569Z,5567.00
2023-03-18T10:47:27.470Z,3331.00
2023-03-18T10:48:27.533Z,3775.00
2023-03-18T10:49:27.436Z,2615.00
2023-03-18T10:50:27.436Z,2696.00
2023-03-18T10:51:27.409Z,5421.00
2023-03-18T10:52:27.393Z,2944.00
2023-03-18T10:53:27.777Z,5091.00
2023-03-18T10:54:27.382Z,3557.00
2023-03-18T10:55:27.364Z,3289.00
2023-03-18T10:56:27.354Z,1535.00
2023-03-18T10:57:27.385Z,3676.00
2023-03-18T10:58:27.500Z,4001.00
2023-03-18T10:59:27.324Z,3658.00
2023-03-18T11:00:27.321Z,4009.00
2023-03-18T11:01:27.332Z,4629.00
2023-03-18T11:02:27.416Z,3450.00
2023-03-18T11:03:27.322Z,3398.00
2023-03-18T11:04:27.263Z,2820.00
2023-03-18T11:05:27.259Z,4436.00
2023-03-18T11:06:27.243Z,3696.00
2023-03-18T11:07:27.261Z,3406.00
2023-03-18T11:08:27.248Z,5849.00
2023-03-18T11:09:27.230Z,1399.00
2023-03-18T11:10:27.201Z,3891.00
2023-03-18T11:11:27.191Z,4643.00
2023-03-18T11:12:27.188Z,5447.00
2023-03-18T11:13:27.224Z,4902.00
2023-03-18T11:14:27.159Z,4327.00
2023-03-18T11:15:27.161Z,4055.00
2023-03-18T11:16:27.190Z,3633.00
2023-03-18T11:17:27.135Z,3813.00
2023-03-18T11:18:27.423Z,3620.00
2023-03-18T11:19:27.864Z,3284.00
2023-03-18T11:20:27.097Z,4427.00
2023-03-18T11:21:27.088Z,3156.00
2023-03-18T11:22:27.088Z,4105.00
2023-03-18T11:23:27.424Z,4116.00
2023-03-18T11:24:27.053Z,3652.00
2023-03-18T11:25:27.046Z,4119.00
2023-03-18T11:26:27.033Z,3980.00
2023-03-18T11:27:27.027Z,4450.00
2023-03-18T11:28:27.350Z,4285.00
2023-03-18T11:29:26.999Z,4091.00
2023-03-18T11:30:34.332Z,5802.00
2023-03-18T11:31:27.084Z,3121.00
2023-03-18T11:32:26.965Z,2564.00
2023-03-18T11:33:27.348Z,3698.00
2023-03-18T11:34:26.942Z,6426.00
2023-03-18T11:35:26.965Z,3959.00
2023-03-18T11:36:26.940Z,4152.00
2023-03-18T11:37:26.922Z,4152.00
2023-03-18T11:38:26.931Z,3823.00
2023-03-18T11:39:26.897Z,2906.00
2023-03-18T11:40:26.878Z,4445.00
2023-03-18T11:41:26.871Z,4193.00
2023-03-18T11:42:26.868Z,5833.00
2023-03-18T11:43:26.995Z,4547.00
2023-03-18T11:44:26.862Z,4297.00
2023-03-18T11:45:26.829Z,3987.00
2023-03-18T11:46:26.977Z,3756.00
2023-03-18T11:47:26.824Z,3510.00
2023-03-18T11:48:26.938Z,3385.00
2023-03-18T11:49:26.778Z,3577.00
2023-03-18T11:50:26.772Z,3569.00
2023-03-18T11:51:27.366Z,1567.00
2023-03-18T11:52:26.841Z,4952.00
2023-03-18T11:53:26.765Z,2774.00
2023-03-18T11:54:26.734Z,4491.00
2023-03-18T11:55:26.715Z,2958.00
2023-03-18T11:56:26.728Z,1186.00
2023-03-18T11:57:26.708Z,3236.00
2023-03-18T11:58:26.746Z,3398.00
2023-03-18T11:59:26.682Z,5174.00
2023-03-18T12:00:26.672Z,3108.00
2023-03-18T12:01:26.665Z,3481.00
2023-03-18T12:02:26.665Z,2467.00
2023-03-18T12:03:26.667Z,2962.00
2023-03-18T12:04:26.669Z,3731.00
2023-03-18T12:05:26.617Z,3010.00
2023-03-18T12:06:26.641Z,2939.00
2023-03-18T12:07:26.599Z,1221.00
2023-03-18T12:08:26.608Z,3561.00
2023-03-18T12:09:26.574Z,3621.00
2023-03-18T12:10:26.563Z,4054.00
2023-03-18T12:11:26.589Z,4083.00
2023-03-18T12:12:26.537Z,3994.00
2023-03-18T12:13:26.526Z,3585.00
2023-03-18T12:14:26.727Z,4617.00
2023-03-18T12:15:26.500Z,4532.00
2023-03-18T12:16:26.552Z,3286.00
2023-03-18T12:17:26.482Z,2504.00
2023-03-18T12:18:26.483Z,3373.00
2023-03-18T12:19:26.457Z,4613.00
2023-03-18T12:20:26.449Z,5028.00
2023-03-18T12:21:26.440Z,1950.00
2023-03-18T12:22:26.440Z,3579.00
2023-03-18T12:23:26.415Z,4657.00
2023-03-18T12:24:26.418Z,3414.00
2023-03-18T12:25:26.395Z,3679.00
2023-03-18T12:26:26.386Z,4160.00
2023-03-18T12:27:26.374Z,4290.00
2023-03-18T12:28:26.375Z,5180.00
2023-03-18T12:29:26.547Z,5703.00
2023-03-18T12:30:26.352Z,4089.00
2023-03-18T12:31:26.368Z,1399.00
2023-03-18T12:32:26.335Z,3896.00
2023-03-18T12:33:26.332Z,4178.00
2023-03-18T12:34:26.355Z,4070.00